Terminal Aerodrome Forecast
Issued by NWS Grand Junction, CO

Home | Current Version | Previous Version | Text Only | Print | Product List | Glossary On
Versions: 1 2 3 4 5 6 7 8 9 10 11 12 13 14 15 16 17 18 19 20 21 22 23 24 25 26 27 28 29 30
906
FTUS45 KGJT 201129
TAFGJT
TAF
KGJT 201129Z 2012/2112 11006KT P6SM FEW150
     FM201500 15008KT P6SM FEW150
     FM202000 29008KT P6SM SCT120
     FM210200 11008KT P6SM FEW120 SCT250=

USA.gov is the U.S. government's official web portal to all federal, state and local government web resources and services.